createdAt,value
2017-11-12T00:01:58.336Z,5.30
2017-11-12T00:04:24.737Z,5.30
2017-11-12T00:06:51.172Z,5.30
2017-11-12T00:09:17.593Z,5.30
2017-11-12T00:11:44.786Z,5.20
2017-11-12T00:14:11.185Z,5.20
2017-11-12T00:16:37.604Z,5.20
2017-11-12T00:19:04.749Z,5.20
2017-11-12T00:21:31.908Z,5.30
2017-11-12T00:23:59.038Z,5.40
2017-11-12T00:26:25.462Z,5.30
2017-11-12T00:28:51.853Z,5.40
2017-11-12T00:31:18.253Z,5.40
2017-11-12T00:33:45.477Z,5.30
2017-11-12T00:36:11.908Z,5.30
2017-11-12T00:38:38.336Z,5.40
2017-11-12T00:41:04.891Z,5.40
2017-11-12T00:43:31.310Z,5.40
2017-11-12T00:45:57.721Z,5.40
2017-11-12T00:48:24.158Z,5.50
2017-11-12T00:50:50.577Z,5.40
2017-11-12T00:53:16.965Z,5.40
2017-11-12T00:55:44.176Z,5.50
2017-11-12T00:58:10.584Z,5.40
2017-11-12T01:00:36.997Z,5.40
2017-11-12T01:03:03.487Z,5.50
2017-11-12T01:05:29.890Z,5.50
2017-11-12T01:07:56.344Z,5.50
2017-11-12T01:10:22.737Z,5.50
2017-11-12T01:12:49.140Z,5.40
2017-11-12T01:15:16.308Z,5.60
2017-11-12T01:17:43.503Z,5.60
2017-11-12T01:20:09.928Z,5.60
2017-11-12T01:22:36.347Z,5.50
2017-11-12T01:25:02.748Z,5.40
2017-11-12T01:27:29.936Z,5.40
2017-11-12T01:29:56.386Z,5.40
2017-11-12T01:32:22.804Z,5.40
2017-11-12T01:34:49.234Z,5.40
2017-11-12T01:37:15.665Z,5.30
2017-11-12T01:39:42.074Z,5.50
2017-11-12T01:42:08.513Z,5.50
2017-11-12T01:44:35.673Z,5.50
2017-11-12T01:47:02.119Z,5.50
2017-11-12T01:49:28.548Z,5.40
2017-11-12T01:51:54.969Z,5.40
2017-11-12T01:54:21.405Z,5.40
2017-11-12T01:56:47.837Z,5.40
2017-11-12T01:59:14.282Z,5.40
2017-11-12T02:01:41.285Z,5.30
2017-11-12T02:04:08.429Z,5.10
2017-11-12T02:06:34.862Z,5.10
2017-11-12T02:09:02.090Z,5.20
2017-11-12T02:11:28.512Z,5.10
2017-11-12T02:13:55.058Z,5.20
2017-11-12T02:16:21.481Z,5.20
2017-11-12T02:18:48.613Z,5.10
2017-11-12T02:21:16.147Z,5.10
2017-11-12T02:23:43.322Z,5.00
2017-11-12T02:26:09.773Z,5.00
2017-11-12T02:28:36.247Z,4.90
2017-11-12T02:31:03.445Z,4.90
2017-11-12T02:33:29.931Z,4.80
2017-11-12T02:35:57.100Z,4.90
2017-11-12T02:38:23.533Z,4.90
2017-11-12T02:40:50.017Z,4.90
2017-11-12T02:43:16.448Z,4.80
2017-11-12T02:45:42.927Z,4.80
2017-11-12T02:48:10.097Z,4.70
2017-11-12T02:50:36.557Z,4.70
2017-11-12T02:53:03.032Z,4.60
2017-11-12T02:55:30.236Z,4.60
2017-11-12T02:57:56.652Z,4.60
2017-11-12T03:00:23.146Z,4.60
2017-11-12T03:02:50.321Z,4.60
2017-11-12T03:05:16.748Z,4.60
2017-11-12T03:07:43.213Z,4.70
2017-11-12T03:10:09.673Z,4.80
2017-11-12T03:12:36.876Z,4.90
2017-11-12T03:15:03.324Z,4.80
2017-11-12T03:17:29.814Z,5.00
2017-11-12T03:19:56.245Z,5.00
2017-11-12T03:22:22.720Z,5.00
2017-11-12T03:24:49.141Z,5.00
2017-11-12T03:27:15.576Z,5.00
2017-11-12T03:29:42.805Z,4.90
2017-11-12T03:32:09.236Z,4.90
2017-11-12T03:34:35.621Z,5.00
2017-11-12T03:37:02.053Z,5.00
2017-11-12T03:39:28.456Z,5.10
2017-11-12T03:41:54.844Z,5.00
2017-11-12T03:44:21.301Z,5.10
2017-11-12T03:46:48.470Z,5.20
2017-11-12T03:49:14.880Z,5.20
2017-11-12T03:51:42.117Z,5.20
2017-11-12T03:54:08.559Z,5.10
2017-11-12T03:56:35.010Z,5.20
2017-11-12T03:59:02.188Z,5.40
2017-11-12T04:01:28.628Z,5.40
2017-11-12T04:03:55.068Z,5.40
2017-11-12T04:06:21.493Z,5.40
2017-11-12T04:08:47.936Z,5.40
2017-11-12T04:11:14.413Z,5.40
2017-11-12T04:13:40.839Z,5.40
2017-11-12T04:16:07.248Z,5.50
2017-11-12T04:18:33.697Z,5.30
2017-11-12T04:21:00.140Z,5.20
2017-11-12T04:23:26.552Z,5.00
2017-11-12T04:25:52.991Z,5.10
2017-11-12T04:28:19.429Z,5.00
2017-11-12T04:30:45.860Z,5.00
2017-11-12T04:33:12.268Z,5.00
2017-11-12T04:35:38.668Z,5.00
2017-11-12T04:38:05.808Z,5.00
2017-11-12T04:40:32.941Z,5.00
2017-11-12T04:42:59.324Z,5.00
2017-11-12T04:45:25.741Z,5.10
2017-11-12T04:47:52.149Z,5.10
2017-11-12T04:50:19.317Z,5.10
2017-11-12T04:52:45.757Z,5.00
2017-11-12T04:55:12.205Z,5.00
2017-11-12T04:57:38.670Z,5.00
2017-11-12T05:00:05.120Z,5.00
2017-11-12T05:02:31.605Z,4.90
2017-11-12T05:04:58.024Z,4.80
2017-11-12T05:07:24.499Z,4.90
2017-11-12T05:09:51.665Z,4.90
2017-11-12T05:12:18.127Z,4.90
2017-11-12T05:14:45.298Z,4.90
2017-11-12T05:17:11.757Z,4.90
2017-11-12T05:19:38.185Z,4.90
2017-11-12T05:22:04.600Z,4.90
2017-11-12T05:24:31.044Z,5.00
2017-11-12T05:26:57.475Z,5.10
2017-11-12T05:29:23.897Z,5.10
2017-11-12T05:31:50.324Z,5.00
2017-11-12T05:34:16.765Z,5.00
2017-11-12T05:36:43.166Z,5.00
2017-11-12T05:39:10.352Z,5.00
2017-11-12T05:41:36.757Z,5.00
2017-11-12T05:44:04.042Z,5.20
2017-11-12T05:46:30.432Z,5.20
2017-11-12T05:48:57.557Z,5.30
2017-11-12T05:51:23.989Z,5.20
2017-11-12T05:53:50.401Z,5.40
2017-11-12T05:56:16.805Z,5.30
2017-11-12T05:58:43.232Z,5.30
2017-11-12T06:01:09.674Z,5.20
2017-11-12T06:03:36.165Z,5.20
2017-11-12T06:06:02.596Z,5.10
2017-11-12T06:08:29.105Z,5.10
2017-11-12T06:10:55.601Z,5.20
2017-11-12T06:13:22.217Z,5.20
2017-11-12T06:15:48.742Z,5.20
2017-11-12T06:18:15.205Z,5.30
2017-11-12T06:20:42.741Z,5.50
2017-11-12T06:23:09.305Z,5.50
2017-11-12T06:25:35.849Z,5.40
2017-11-12T06:28:02.269Z,5.40
2017-11-12T06:30:28.901Z,5.40
2017-11-12T06:32:55.397Z,5.40
2017-11-12T06:35:21.865Z,5.30
2017-11-12T06:37:49.065Z,5.50
2017-11-12T06:40:15.904Z,5.50
2017-11-12T06:42:43.005Z,5.60
2017-11-12T06:45:09.661Z,5.60
2017-11-12T06:47:36.318Z,5.70
2017-11-12T06:50:02.927Z,5.60
2017-11-12T06:52:29.429Z,5.60
2017-11-12T06:54:56.998Z,5.70
2017-11-12T06:57:23.401Z,5.70
2017-11-12T06:59:50.620Z,5.80
2017-11-12T07:02:17.414Z,5.80
2017-11-12T07:04:43.969Z,5.80
2017-11-12T07:07:11.225Z,6.00
2017-11-12T07:09:37.840Z,6.00
2017-11-12T07:12:04.444Z,6.00
2017-11-12T07:14:30.972Z,6.00
2017-11-12T07:16:57.562Z,6.10
2017-11-12T07:19:24.009Z,6.10
2017-11-12T07:21:51.214Z,6.20
2017-11-12T07:24:18.593Z,6.20
2017-11-12T07:26:45.302Z,6.20
2017-11-12T07:29:12.641Z,6.10
2017-11-12T07:31:39.221Z,6.10
2017-11-12T07:34:05.649Z,6.20
2017-11-12T07:36:32.064Z,6.20
2017-11-12T07:38:59.448Z,6.50
2017-11-12T07:41:26.098Z,6.50
2017-11-12T07:43:53.886Z,6.70
2017-11-12T07:46:20.436Z,6.70
2017-11-12T07:48:46.961Z,6.70
2017-11-12T07:51:13.493Z,6.60
2017-11-12T07:53:40.050Z,6.60
2017-11-12T07:56:06.617Z,6.70
2017-11-12T07:58:33.921Z,6.70
2017-11-12T08:01:00.437Z,6.70
2017-11-12T08:03:27.018Z,6.70
2017-11-12T08:05:53.533Z,6.80
2017-11-12T08:08:19.966Z,6.90
2017-11-12T08:10:47.677Z,7.00
2017-11-12T08:13:14.180Z,7.10
2017-11-12T08:15:40.593Z,7.00
2017-11-12T08:18:07.036Z,7.10
2017-11-12T08:20:33.485Z,7.10
2017-11-12T08:22:59.888Z,7.20
2017-11-12T08:25:26.407Z,7.40
2017-11-12T08:27:53.608Z,7.60
2017-11-12T08:30:20.022Z,7.60
2017-11-12T08:32:46.409Z,7.70
2017-11-12T08:35:12.830Z,7.70
2017-11-12T08:37:39.232Z,7.70
2017-11-12T08:40:05.816Z,7.70
2017-11-12T08:42:32.310Z,7.70
2017-11-12T08:44:58.722Z,7.70
2017-11-12T08:47:25.200Z,7.70
2017-11-12T08:49:52.741Z,7.70
2017-11-12T08:52:19.522Z,7.70
2017-11-12T08:54:46.709Z,8.00
2017-11-12T08:57:13.137Z,8.00
2017-11-12T08:59:39.735Z,8.00
2017-11-12T09:02:07.142Z,8.20
2017-11-12T09:04:33.629Z,8.20
2017-11-12T09:07:00.096Z,8.30
2017-11-12T09:09:26.525Z,8.30
2017-11-12T09:11:53.006Z,8.30
2017-11-12T09:14:19.760Z,8.20
2017-11-12T09:16:46.421Z,8.30
2017-11-12T09:19:13.057Z,8.30
2017-11-12T09:21:39.625Z,8.40
2017-11-12T09:24:06.319Z,8.30
2017-11-12T09:26:32.995Z,8.30
2017-11-12T09:28:59.633Z,8.40
2017-11-12T09:31:26.993Z,8.50
2017-11-12T09:33:53.706Z,8.50
2017-11-12T09:36:20.158Z,8.60
2017-11-12T09:38:46.814Z,8.60
2017-11-12T09:41:13.440Z,8.50
2017-11-12T09:43:40.033Z,8.40
2017-11-12T09:46:08.654Z,8.40
2017-11-12T09:48:35.241Z,8.50
2017-11-12T09:51:02.645Z,8.50
2017-11-12T09:53:29.141Z,8.60
2017-11-12T09:55:56.329Z,8.70
2017-11-12T09:58:23.837Z,8.60
2017-11-12T10:00:50.278Z,8.70
2017-11-12T10:03:16.693Z,8.80
2017-11-12T10:05:43.089Z,8.90
2017-11-12T10:08:09.473Z,8.90
2017-11-12T10:10:36.345Z,8.70
2017-11-12T10:13:02.970Z,8.40
2017-11-12T10:15:29.656Z,8.50
2017-11-12T10:17:56.082Z,8.50
2017-11-12T10:20:22.516Z,8.50
2017-11-12T10:22:48.917Z,8.50
2017-11-12T10:25:16.169Z,8.30
2017-11-12T10:27:43.293Z,8.20
2017-11-12T10:30:10.090Z,8.20
2017-11-12T10:32:36.520Z,8.00
2017-11-12T10:35:02.945Z,8.00
2017-11-12T10:37:29.336Z,8.10
2017-11-12T10:39:55.750Z,8.30
2017-11-12T10:42:22.118Z,8.50
2017-11-12T10:44:48.866Z,8.60
2017-11-12T10:47:15.473Z,8.70
2017-11-12T10:49:42.645Z,8.70
2017-11-12T10:52:09.051Z,8.70
2017-11-12T10:54:36.180Z,8.70
2017-11-12T10:57:02.904Z,8.70
2017-11-12T10:59:29.376Z,8.80
2017-11-12T11:01:55.771Z,8.80
2017-11-12T11:04:22.140Z,8.60
2017-11-12T11:06:48.544Z,8.60
2017-11-12T11:09:15.730Z,8.70
2017-11-12T11:11:42.096Z,8.70
2017-11-12T11:14:09.226Z,8.90
2017-11-12T11:16:35.631Z,8.90
2017-11-12T11:19:02.104Z,8.90
2017-11-12T11:21:29.245Z,8.80
2017-11-12T11:23:55.621Z,8.80
2017-11-12T11:26:22.047Z,8.90
2017-11-12T11:28:48.434Z,8.90
2017-11-12T11:31:14.804Z,9.00
2017-11-12T11:33:41.204Z,8.90
2017-11-12T11:36:07.590Z,8.90
2017-11-12T11:38:33.973Z,8.90
2017-11-12T11:41:00.391Z,8.90
2017-11-12T11:43:26.881Z,9.00
2017-11-12T11:45:53.256Z,9.10
2017-11-12T11:48:19.647Z,9.20
2017-11-12T11:50:46.131Z,9.30
2017-11-12T11:53:13.245Z,9.20
2017-11-12T11:55:39.693Z,9.20
2017-11-12T11:58:06.099Z,9.20
2017-11-12T12:00:32.564Z,9.10
2017-11-12T12:02:59.016Z,9.20
2017-11-12T12:05:25.416Z,9.30
2017-11-12T12:07:51.797Z,9.30
2017-11-12T12:10:18.980Z,9.20
2017-11-12T12:12:45.377Z,9.20
2017-11-12T12:15:19.692Z,9.30
2017-11-12T12:17:46.801Z,9.30
2017-11-12T12:20:13.180Z,9.30
2017-11-12T12:22:40.365Z,9.20
2017-11-12T12:25:06.765Z,9.20
2017-11-12T12:27:33.905Z,9.30
2017-11-12T12:30:01.033Z,9.30
2017-11-12T12:32:27.437Z,9.30
2017-11-12T12:34:53.827Z,9.40
2017-11-12T12:37:20.992Z,9.20
2017-11-12T12:39:48.140Z,9.20
2017-11-12T12:42:14.580Z,9.20
2017-11-12T12:44:40.965Z,9.20
2017-11-12T12:47:07.636Z,9.30
2017-11-12T12:49:34.557Z,9.40
2017-11-12T12:52:01.016Z,9.40
2017-11-12T12:54:28.144Z,9.30
2017-11-12T12:56:54.548Z,9.30
2017-11-12T12:59:21.696Z,9.40
2017-11-12T13:01:48.274Z,9.40
2017-11-12T13:04:15.376Z,9.40
2017-11-12T13:06:41.769Z,9.40
2017-11-12T13:09:08.189Z,9.30
2017-11-12T13:11:35.485Z,9.50
2017-11-12T13:14:01.953Z,9.40
2017-11-12T13:16:28.372Z,9.40
2017-11-12T13:18:54.866Z,9.30
2017-11-12T13:21:21.300Z,9.30
2017-11-12T13:23:47.724Z,9.30
2017-11-12T13:26:14.408Z,9.30
2017-11-12T13:28:41.032Z,9.30
2017-11-12T13:31:08.015Z,9.20
2017-11-12T13:33:34.437Z,9.10
2017-11-12T13:36:00.872Z,9.10
2017-11-12T13:38:28.048Z,8.90
2017-11-12T13:40:55.201Z,8.80
2017-11-12T13:43:21.946Z,8.80
2017-11-12T13:45:48.353Z,8.80
2017-11-12T13:48:15.061Z,8.90
2017-11-12T13:50:42.333Z,8.90
2017-11-12T13:53:09.228Z,8.90
2017-11-12T13:55:35.756Z,8.90
2017-11-12T13:58:02.325Z,9.00
2017-11-12T14:00:28.733Z,9.00
2017-11-12T14:02:55.200Z,9.00
2017-11-12T14:05:21.602Z,9.00
2017-11-12T14:07:48.025Z,9.10
2017-11-12T14:10:14.428Z,9.00
2017-11-12T14:12:40.878Z,8.90
2017-11-12T14:15:08.024Z,9.00
2017-11-12T14:17:35.272Z,9.00
2017-11-12T14:20:02.856Z,9.00
2017-11-12T14:22:30.169Z,9.10
2017-11-12T14:24:56.613Z,9.10
2017-11-12T14:27:24.054Z,8.90
2017-11-12T14:29:51.237Z,8.90
2017-11-12T14:32:18.358Z,8.80
2017-11-12T14:34:45.012Z,8.70
2017-11-12T14:37:11.840Z,8.80
2017-11-12T14:39:38.654Z,8.90
2017-11-12T14:42:05.030Z,8.70
2017-11-12T14:44:32.220Z,8.80
2017-11-12T14:46:58.677Z,8.80
2017-11-12T14:49:25.057Z,8.90
2017-11-12T14:51:51.464Z,8.90
2017-11-12T14:54:19.304Z,8.90
2017-11-12T14:56:46.426Z,8.90
2017-11-12T14:59:12.868Z,8.90
2017-11-12T15:01:39.290Z,9.00
2017-11-12T15:04:05.716Z,9.00
2017-11-12T15:06:32.713Z,8.90
2017-11-12T15:09:00.152Z,8.90
2017-11-12T15:11:26.580Z,8.90
2017-11-12T15:13:53.072Z,8.90
2017-11-12T15:16:20.237Z,8.70
2017-11-12T15:18:46.794Z,8.70
2017-11-12T15:21:13.258Z,8.80
2017-11-12T15:23:40.810Z,8.80
2017-11-12T15:26:07.208Z,8.80
2017-11-12T15:28:33.767Z,8.80
2017-11-12T15:31:00.666Z,8.70
2017-11-12T15:33:27.181Z,8.70
2017-11-12T15:35:55.528Z,8.70
2017-11-12T15:38:22.178Z,8.70
2017-11-12T15:40:48.798Z,8.60
2017-11-12T15:43:15.400Z,8.70
2017-11-12T15:45:41.880Z,8.70
2017-11-12T15:48:09.017Z,8.70
2017-11-12T15:50:35.460Z,8.60
2017-11-12T15:53:01.862Z,8.70
2017-11-12T15:55:28.321Z,8.80
2017-11-12T15:57:54.735Z,8.70
2017-11-12T16:00:21.173Z,8.60
2017-11-12T16:02:47.587Z,8.60
2017-11-12T16:05:13.960Z,8.60
2017-11-12T16:07:40.363Z,8.60
2017-11-12T16:10:06.757Z,8.70
2017-11-12T16:12:33.893Z,8.60
2017-11-12T16:15:00.317Z,8.60
2017-11-12T16:17:26.789Z,8.60
2017-11-12T16:19:53.247Z,8.60
2017-11-12T16:22:19.725Z,8.60
2017-11-12T16:24:46.229Z,8.50
2017-11-12T16:27:13.344Z,8.50
2017-11-12T16:29:39.733Z,8.50
2017-11-12T16:32:06.164Z,8.50
2017-11-12T16:34:33.385Z,8.60
2017-11-12T16:36:59.855Z,8.60
2017-11-12T16:39:26.297Z,8.60
2017-11-12T16:41:53.753Z,8.50
2017-11-12T16:44:20.195Z,8.50
2017-11-12T16:46:47.637Z,8.50
2017-11-12T16:49:14.144Z,8.50
2017-11-12T16:51:40.821Z,8.40
2017-11-12T16:54:07.331Z,8.50
2017-11-12T16:56:34.039Z,8.40
2017-11-12T16:59:00.518Z,8.20
2017-11-12T17:01:27.162Z,8.30
2017-11-12T17:03:53.565Z,8.30
2017-11-12T17:06:20.106Z,8.40
2017-11-12T17:08:46.502Z,8.40
2017-11-12T17:11:13.148Z,8.30
2017-11-12T17:13:39.714Z,8.30
2017-11-12T17:16:06.266Z,8.20
2017-11-12T17:18:33.457Z,8.10
2017-11-12T17:21:00.069Z,8.10
2017-11-12T17:23:26.631Z,8.10
2017-11-12T17:25:53.282Z,8.20
2017-11-12T17:28:19.690Z,8.20
2017-11-12T17:30:46.341Z,8.00
2017-11-12T17:33:13.705Z,7.90
2017-11-12T17:35:40.278Z,7.90
2017-11-12T17:38:07.620Z,7.80
2017-11-12T17:40:34.805Z,7.80
2017-11-12T17:43:01.977Z,7.70
2017-11-12T17:45:28.641Z,7.70
2017-11-12T17:47:55.071Z,7.50
2017-11-12T17:50:21.787Z,7.40
2017-11-12T17:52:48.381Z,7.40
2017-11-12T17:55:15.013Z,7.30
2017-11-12T17:57:41.614Z,7.30
2017-11-12T18:00:08.286Z,7.30
2017-11-12T18:02:35.558Z,7.20
2017-11-12T18:05:02.028Z,7.20
2017-11-12T18:07:28.747Z,7.30
2017-11-12T18:09:55.414Z,7.30
2017-11-12T18:12:21.863Z,7.30
2017-11-12T18:14:48.268Z,7.30
2017-11-12T18:17:14.820Z,7.30
2017-11-12T18:19:41.245Z,7.40
2017-11-12T18:22:07.639Z,7.40
2017-11-12T18:24:34.913Z,7.40
2017-11-12T18:27:02.286Z,7.40
2017-11-12T18:29:29.633Z,7.40
2017-11-12T18:31:56.838Z,7.40
2017-11-12T18:34:23.213Z,7.40
2017-11-12T18:36:49.925Z,7.50
2017-11-12T18:39:17.273Z,7.20
2017-11-12T18:41:43.708Z,7.20
2017-11-12T18:44:10.337Z,7.20
2017-11-12T18:46:37.512Z,7.20
2017-11-12T18:49:04.830Z,7.20
2017-11-12T18:51:31.261Z,7.20
2017-11-12T18:53:57.693Z,7.20
2017-11-12T18:56:25.114Z,7.20
2017-11-12T18:58:57.773Z,7.10
2017-11-12T19:04:27.812Z,7.10
2017-11-12T19:07:14.805Z,7.10
2017-11-12T19:09:41.268Z,7.10
2017-11-12T19:12:10.367Z,7.10
2017-11-12T19:14:36.849Z,7.20
2017-11-12T19:17:06.220Z,7.10
2017-11-12T19:19:34.613Z,7.00
2017-11-12T19:22:01.092Z,7.00
2017-11-12T19:24:33.150Z,7.10
2017-11-12T19:26:59.580Z,7.10
2017-11-12T19:29:26.246Z,7.10
2017-11-12T19:31:52.696Z,7.00
2017-11-12T19:34:19.101Z,7.10
2017-11-12T19:36:45.553Z,7.10
2017-11-12T19:39:11.992Z,7.10
2017-11-12T19:41:38.390Z,7.10
2017-11-12T19:44:05.046Z,7.10
2017-11-12T19:46:31.492Z,7.00
2017-11-12T19:48:58.608Z,7.00
2017-11-12T19:51:25.118Z,7.00
2017-11-12T19:53:51.498Z,7.10
2017-11-12T19:56:18.708Z,7.10
2017-11-12T19:58:46.311Z,7.10
2017-11-12T20:01:13.306Z,7.10
2017-11-12T20:03:39.875Z,6.90
2017-11-12T20:06:07.037Z,6.90
2017-11-12T20:08:34.177Z,6.80
2017-11-12T20:11:01.111Z,6.80
2017-11-12T20:13:27.709Z,6.70
2017-11-12T20:15:55.118Z,6.80
2017-11-12T20:18:21.647Z,6.80
2017-11-12T20:20:48.848Z,6.90
2017-11-12T20:23:15.525Z,6.80
2017-11-12T20:25:42.949Z,6.90
2017-11-12T20:28:09.575Z,6.90
2017-11-12T20:30:36.809Z,7.00
2017-11-12T20:33:04.906Z,7.00
2017-11-12T20:35:32.849Z,7.10
2017-11-12T20:38:00.409Z,7.10
2017-11-12T20:40:26.937Z,7.10
2017-11-12T20:42:53.424Z,7.10
2017-11-12T20:45:20.139Z,7.00
2017-11-12T20:47:46.738Z,7.00
2017-11-12T20:50:13.913Z,7.00
2017-11-12T20:52:41.222Z,7.00
2017-11-12T20:55:07.665Z,6.90
2017-11-12T20:57:34.089Z,6.90
2017-11-12T21:00:00.546Z,6.90
2017-11-12T21:02:27.709Z,7.10
2017-11-12T21:04:55.923Z,7.10
2017-11-12T21:07:22.366Z,7.10
2017-11-12T21:09:48.781Z,7.10
2017-11-12T21:12:15.249Z,7.10
2017-11-12T21:14:42.175Z,7.00
2017-11-12T21:17:08.724Z,7.10
2017-11-12T21:19:35.157Z,7.20
2017-11-12T21:24:56.600Z,7.30
2017-11-12T21:27:23.029Z,7.30
2017-11-12T21:29:50.348Z,7.40
2017-11-12T21:32:16.795Z,7.50
2017-11-12T21:34:45.150Z,7.50
2017-11-12T21:37:12.633Z,7.50
2017-11-12T21:39:39.060Z,7.40
2017-11-12T21:42:05.560Z,7.40
2017-11-12T21:44:32.018Z,7.50
2017-11-12T21:46:58.443Z,7.50
2017-11-12T21:49:24.852Z,7.60
2017-11-12T21:51:51.994Z,7.90
2017-11-12T21:54:19.165Z,8.00
2017-11-12T21:56:45.563Z,8.00
2017-11-12T21:59:11.997Z,8.10
2017-11-12T22:01:38.432Z,8.10
2017-11-12T22:04:05.549Z,8.00
2017-11-12T22:06:31.969Z,8.00
2017-11-12T22:08:58.483Z,8.00
2017-11-12T22:11:24.890Z,8.10
2017-11-12T22:13:51.308Z,8.10
2017-11-12T22:16:17.741Z,8.10
2017-11-12T22:18:44.913Z,8.30
2017-11-12T22:21:12.090Z,8.30
2017-11-12T22:23:38.552Z,8.30
2017-11-12T22:26:05.031Z,8.20
2017-11-12T22:28:32.141Z,8.30
2017-11-12T22:30:58.568Z,8.30
2017-11-12T22:33:24.981Z,8.40
2017-11-12T22:35:51.352Z,8.30
2017-11-12T22:38:17.768Z,8.20
2017-11-12T22:40:44.196Z,8.30
2017-11-12T22:43:10.624Z,8.30
2017-11-12T22:45:37.004Z,8.40
2017-11-12T22:48:04.178Z,8.50
2017-11-12T22:50:30.595Z,8.50
2017-11-12T22:52:57.723Z,8.50
2017-11-12T22:55:24.146Z,8.50
2017-11-12T22:57:50.533Z,8.50
2017-11-12T23:00:16.983Z,8.60
2017-11-12T23:02:43.374Z,8.60
2017-11-12T23:05:09.762Z,8.60
2017-11-12T23:07:36.192Z,8.50
2017-11-12T23:10:02.609Z,8.50
2017-11-12T23:12:28.992Z,8.60
2017-11-12T23:14:56.193Z,8.60
2017-11-12T23:17:22.577Z,8.60
2017-11-12T23:19:49.744Z,8.70
2017-11-12T23:22:16.182Z,8.70
2017-11-12T23:24:42.604Z,8.70
2017-11-12T23:27:09.017Z,8.60
2017-11-12T23:29:36.140Z,8.60
2017-11-12T23:32:02.598Z,8.60
2017-11-12T23:34:29.715Z,8.40
2017-11-12T23:36:56.139Z,8.40
2017-11-12T23:39:22.553Z,8.40
2017-11-12T23:41:48.974Z,8.40
2017-11-12T23:44:15.384Z,8.50
2017-11-12T23:46:42.552Z,8.50
2017-11-12T23:49:08.937Z,8.50
2017-11-12T23:51:35.367Z,8.40
2017-11-12T23:54:01.819Z,8.30
2017-11-12T23:56:28.206Z,8.40
2017-11-12T23:58:54.602Z,8.50
